Аэропорт: Актау. Актау

ICAO: UATE

METAR:
2019-11-21 01:30:00
UATE 210130Z 05009MPS 9999 OVC049 M05/M09 Q1033 R12/0///70 NOSIG RMK QFE773/1030
METAR:
2019-11-20 23:05:00
TAF UATE 202305Z 2100/2124 06010G16MPS 9999 BKN015 FEW033CB TXM05/2109Z TNM05/2102Z